createdAt,value
2022-08-25T00:00:53.000Z,22.6
2022-08-25T00:02:07.000Z,22.6
2022-08-25T00:03:21.000Z,22.6
2022-08-25T00:04:35.000Z,22.6
2022-08-25T00:05:49.000Z,22.6
2022-08-25T00:07:03.000Z,22.5
2022-08-25T00:08:17.000Z,22.5
2022-08-25T00:09:32.000Z,22.5
2022-08-25T00:10:46.000Z,22.5
2022-08-25T00:12:00.000Z,22.5
2022-08-25T00:13:14.000Z,22.5
2022-08-25T00:14:28.000Z,22.4
2022-08-25T00:15:42.000Z,22.4
2022-08-25T00:16:55.000Z,22.4
2022-08-25T00:18:10.000Z,22.4
2022-08-25T00:19:24.000Z,22.4
2022-08-25T00:20:38.000Z,22.4
2022-08-25T00:21:52.000Z,22.4
2022-08-25T00:23:06.000Z,22.3
2022-08-25T00:24:20.000Z,22.3
2022-08-25T00:25:33.000Z,22.3
2022-08-25T00:26:46.000Z,22.3
2022-08-25T00:28:01.000Z,22.3
2022-08-25T00:29:14.000Z,22.3
2022-08-25T00:30:27.000Z,22.2
2022-08-25T00:31:41.000Z,22.2
2022-08-25T00:34:09.000Z,22.2
2022-08-25T00:35:23.000Z,22.2
2022-08-25T00:36:37.000Z,22.1
2022-08-25T00:37:52.000Z,22.1
2022-08-25T00:39:06.000Z,22.1
2022-08-25T00:40:20.000Z,22.1
2022-08-25T00:41:34.000Z,22.1
2022-08-25T00:42:48.000Z,22.1
2022-08-25T00:44:02.000Z,22.1
2022-08-25T00:45:16.000Z,22.1
2022-08-25T00:46:29.000Z,22
2022-08-25T00:47:44.000Z,22
2022-08-25T00:48:58.000Z,22
2022-08-25T00:50:12.000Z,22
2022-08-25T00:51:26.000Z,22
2022-08-25T00:52:40.000Z,22
2022-08-25T00:53:54.000Z,22
2022-08-25T00:55:08.000Z,22
2022-08-25T00:56:22.000Z,21.9
2022-08-25T00:57:35.000Z,21.9
2022-08-25T00:58:48.000Z,21.9
2022-08-25T01:00:01.000Z,21.9
2022-08-25T01:01:15.000Z,21.9
2022-08-25T01:02:29.000Z,21.9
2022-08-25T01:03:43.000Z,21.9
2022-08-25T01:04:57.000Z,21.9
2022-08-25T01:06:12.000Z,21.8
2022-08-25T01:07:26.000Z,21.8
2022-08-25T01:08:40.000Z,21.8
2022-08-25T01:09:54.000Z,21.8
2022-08-25T01:11:08.000Z,21.8
2022-08-25T01:12:22.000Z,21.8
2022-08-25T01:13:36.000Z,21.8
2022-08-25T01:14:50.000Z,21.8
2022-08-25T01:16:04.000Z,21.7
2022-08-25T01:17:18.000Z,21.7
2022-08-25T01:18:32.000Z,21.7
2022-08-25T01:19:46.000Z,21.7
2022-08-25T01:21:00.000Z,21.7
2022-08-25T01:22:14.000Z,21.6
2022-08-25T01:23:28.000Z,21.6
2022-08-25T01:24:41.000Z,21.6
2022-08-25T01:25:55.000Z,21.6
2022-08-25T01:27:09.000Z,21.6
2022-08-25T01:28:22.000Z,21.6
2022-08-25T01:29:35.000Z,21.6
2022-08-25T01:30:49.000Z,21.6
2022-08-25T01:32:03.000Z,21.5
2022-08-25T01:33:17.000Z,21.5
2022-08-25T01:34:32.000Z,21.5
2022-08-25T01:35:46.000Z,21.5
2022-08-25T01:37:00.000Z,21.5
2022-08-25T01:38:14.000Z,21.5
2022-08-25T01:39:28.000Z,21.5
2022-08-25T01:40:42.000Z,21.5
2022-08-25T01:41:56.000Z,21.5
2022-08-25T01:43:10.000Z,21.5
2022-08-25T01:44:25.000Z,21.4
2022-08-25T01:45:38.000Z,21.4
2022-08-25T01:46:52.000Z,21.4
2022-08-25T01:48:06.000Z,21.4
2022-08-25T01:49:20.000Z,21.4
2022-08-25T01:50:34.000Z,21.4
2022-08-25T01:51:48.000Z,21.4
2022-08-25T01:53:02.000Z,21.4
2022-08-25T01:54:17.000Z,21.3
2022-08-25T01:55:30.000Z,21.3
2022-08-25T01:56:43.000Z,21.3
2022-08-25T01:57:56.000Z,21.3
2022-08-25T01:59:09.000Z,21.3
2022-08-25T02:00:23.000Z,21.3
2022-08-25T02:01:37.000Z,21.3
2022-08-25T02:02:52.000Z,21.2
2022-08-25T02:04:06.000Z,21.2
2022-08-25T02:05:20.000Z,21.2
2022-08-25T02:06:34.000Z,21.2
2022-08-25T02:07:48.000Z,21.2
2022-08-25T02:09:02.000Z,21.2
2022-08-25T02:10:16.000Z,21.1
2022-08-25T02:11:30.000Z,21.1
2022-08-25T02:12:45.000Z,21.1
2022-08-25T02:13:59.000Z,21.1
2022-08-25T02:15:12.000Z,21.1
2022-08-25T02:16:26.000Z,21.1
2022-08-25T02:17:40.000Z,21.1
2022-08-25T02:18:54.000Z,21.1
2022-08-25T02:20:08.000Z,21.1
2022-08-25T02:21:22.000Z,21
2022-08-25T02:22:37.000Z,21
2022-08-25T02:23:50.000Z,21
2022-08-25T02:25:03.000Z,21
2022-08-25T02:26:17.000Z,21
2022-08-25T02:27:30.000Z,21
2022-08-25T02:28:44.000Z,21
2022-08-25T02:29:57.000Z,21
2022-08-25T02:31:11.000Z,20.9
2022-08-25T02:32:26.000Z,20.9
2022-08-25T02:33:40.000Z,20.9
2022-08-25T02:34:54.000Z,20.9
2022-08-25T02:36:08.000Z,20.9
2022-08-25T02:37:22.000Z,20.9
2022-08-25T02:38:36.000Z,20.9
2022-08-25T02:39:50.000Z,20.9
2022-08-25T02:41:04.000Z,20.8
2022-08-25T02:42:19.000Z,20.8
2022-08-25T02:43:33.000Z,20.8
2022-08-25T02:44:47.000Z,20.8
2022-08-25T02:46:00.000Z,20.8
2022-08-25T02:47:14.000Z,20.8
2022-08-25T02:48:28.000Z,20.8
2022-08-25T02:49:42.000Z,20.8
2022-08-25T02:50:56.000Z,20.7
2022-08-25T02:52:11.000Z,20.7
2022-08-25T02:53:24.000Z,20.7
2022-08-25T02:54:37.000Z,20.7
2022-08-25T02:55:51.000Z,20.7
2022-08-25T02:57:04.000Z,20.7
2022-08-25T02:58:17.000Z,20.7
2022-08-25T02:59:31.000Z,20.7
2022-08-25T03:00:46.000Z,20.6
2022-08-25T03:02:00.000Z,20.6
2022-08-25T03:03:14.000Z,20.6
2022-08-25T03:04:28.000Z,20.6
2022-08-25T03:05:42.000Z,20.6
2022-08-25T03:06:56.000Z,20.6
2022-08-25T03:08:10.000Z,20.6
2022-08-25T03:09:24.000Z,20.5
2022-08-25T03:10:39.000Z,20.5
2022-08-25T03:11:53.000Z,20.5
2022-08-25T03:13:07.000Z,20.5
2022-08-25T03:14:20.000Z,20.5
2022-08-25T03:15:34.000Z,20.5
2022-08-25T03:16:48.000Z,20.5
2022-08-25T03:18:02.000Z,20.5
2022-08-25T03:19:16.000Z,20.5
2022-08-25T03:20:31.000Z,20.4
2022-08-25T03:21:45.000Z,20.4
2022-08-25T03:22:58.000Z,20.4
2022-08-25T03:24:11.000Z,20.4
2022-08-25T03:25:25.000Z,20.4
2022-08-25T03:26:39.000Z,20.4
2022-08-25T03:27:53.000Z,20.4
2022-08-25T03:29:07.000Z,20.4
2022-08-25T03:30:20.000Z,20.4
2022-08-25T03:31:34.000Z,20.3
2022-08-25T03:32:48.000Z,20.3
2022-08-25T03:34:02.000Z,20.3
2022-08-25T03:35:16.000Z,20.3
2022-08-25T03:36:30.000Z,20.3
2022-08-25T03:37:44.000Z,20.3
2022-08-25T03:38:59.000Z,20.3
2022-08-25T03:40:13.000Z,20.3
2022-08-25T03:41:27.000Z,20.3
2022-08-25T03:42:41.000Z,20.3
2022-08-25T03:43:55.000Z,20.3
2022-08-25T03:45:09.000Z,20.3
2022-08-25T03:46:22.000Z,20.2
2022-08-25T03:47:36.000Z,20.2
2022-08-25T03:48:51.000Z,20.2
2022-08-25T03:50:05.000Z,20.2
2022-08-25T03:51:19.000Z,20.2
2022-08-25T03:52:33.000Z,20.2
2022-08-25T03:53:47.000Z,20.2
2022-08-25T03:55:01.000Z,20.2
2022-08-25T03:56:14.000Z,20.2
2022-08-25T03:57:27.000Z,20.2
2022-08-25T03:58:42.000Z,20.1
2022-08-25T03:59:56.000Z,20.2
2022-08-25T04:01:10.000Z,20.1
2022-08-25T04:02:24.000Z,20.1
2022-08-25T04:03:38.000Z,20.1
2022-08-25T04:04:52.000Z,20.1
2022-08-25T04:06:06.000Z,20.1
2022-08-25T04:07:20.000Z,20.1
2022-08-25T04:08:35.000Z,20.1
2022-08-25T04:09:49.000Z,20.1
2022-08-25T04:11:03.000Z,20.1
2022-08-25T04:12:17.000Z,20.1
2022-08-25T04:13:30.000Z,20.1
2022-08-25T04:14:44.000Z,20.1
2022-08-25T04:15:58.000Z,20.1
2022-08-25T04:17:13.000Z,20.1
2022-08-25T04:18:27.000Z,20.1
2022-08-25T04:19:41.000Z,20
2022-08-25T04:20:55.000Z,20.1
2022-08-25T04:22:08.000Z,20
2022-08-25T04:23:21.000Z,20
2022-08-25T04:24:35.000Z,20
2022-08-25T04:25:48.000Z,20
2022-08-25T04:27:02.000Z,20
2022-08-25T04:28:16.000Z,20
2022-08-25T04:29:30.000Z,20
2022-08-25T04:30:43.000Z,20
2022-08-25T04:31:56.000Z,20
2022-08-25T04:33:10.000Z,20
2022-08-25T04:34:24.000Z,20
2022-08-25T04:35:38.000Z,20
2022-08-25T04:36:53.000Z,20
2022-08-25T04:38:07.000Z,20
2022-08-25T04:39:21.000Z,20
2022-08-25T04:40:35.000Z,20
2022-08-25T04:41:49.000Z,20
2022-08-25T04:43:03.000Z,20
2022-08-25T04:44:17.000Z,20
2022-08-25T04:45:32.000Z,20
2022-08-25T04:46:46.000Z,20
2022-08-25T04:47:59.000Z,20
2022-08-25T04:49:13.000Z,20.1
2022-08-25T04:50:27.000Z,20.1
2022-08-25T04:51:41.000Z,20.1
2022-08-25T04:52:55.000Z,20.1
2022-08-25T04:54:09.000Z,20.1
2022-08-25T04:55:24.000Z,20.1
2022-08-25T04:56:37.000Z,20.1
2022-08-25T04:57:50.000Z,20.1
2022-08-25T04:59:04.000Z,20.1
2022-08-25T05:00:17.000Z,20.1
2022-08-25T05:01:31.000Z,20.1
2022-08-25T05:02:44.000Z,20.2
2022-08-25T05:03:58.000Z,20.2
2022-08-25T05:05:13.000Z,20.2
2022-08-25T05:06:27.000Z,20.2
2022-08-25T05:07:41.000Z,20.2
2022-08-25T05:08:55.000Z,20.3
2022-08-25T05:10:09.000Z,20.3
2022-08-25T05:11:23.000Z,20.3
2022-08-25T05:12:37.000Z,20.3
2022-08-25T05:13:51.000Z,20.3
2022-08-25T05:15:06.000Z,20.3
2022-08-25T05:16:20.000Z,20.3
2022-08-25T05:17:34.000Z,20.3
2022-08-25T05:18:47.000Z,20.4
2022-08-25T05:20:01.000Z,20.4
2022-08-25T05:21:15.000Z,20.4
2022-08-25T05:22:29.000Z,20.4
2022-08-25T05:23:43.000Z,20.5
2022-08-25T05:24:58.000Z,20.5
2022-08-25T05:26:11.000Z,20.5
2022-08-25T05:27:24.000Z,20.5
2022-08-25T05:28:38.000Z,20.6
2022-08-25T05:29:52.000Z,20.6
2022-08-25T05:31:06.000Z,20.6
2022-08-25T05:32:20.000Z,20.6
2022-08-25T05:33:35.000Z,20.6
2022-08-25T05:34:48.000Z,20.7
2022-08-25T05:36:01.000Z,20.7
2022-08-25T05:37:15.000Z,20.7
2022-08-25T05:38:29.000Z,20.7
2022-08-25T05:39:43.000Z,20.8
2022-08-25T05:40:57.000Z,20.8
2022-08-25T05:42:11.000Z,20.8
2022-08-25T05:43:26.000Z,20.8
2022-08-25T05:44:40.000Z,20.9
2022-08-25T05:45:54.000Z,20.9
2022-08-25T05:47:08.000Z,20.9
2022-08-25T05:48:22.000Z,20.9
2022-08-25T05:49:36.000Z,21
2022-08-25T05:50:50.000Z,21
2022-08-25T05:52:03.000Z,21
2022-08-25T05:53:18.000Z,21
2022-08-25T05:54:32.000Z,21
2022-08-25T05:55:46.000Z,21.1
2022-08-25T05:57:00.000Z,21.1
2022-08-25T05:58:14.000Z,21.1
2022-08-25T05:59:28.000Z,21.1
2022-08-25T06:00:41.000Z,21.2
2022-08-25T06:01:55.000Z,21.2
2022-08-25T06:03:09.000Z,21.2
2022-08-25T06:04:22.000Z,21.3
2022-08-25T06:05:35.000Z,21.3
2022-08-25T06:06:49.000Z,21.3
2022-08-25T06:08:03.000Z,21.4
2022-08-25T06:09:17.000Z,21.4
2022-08-25T06:10:31.000Z,21.4
2022-08-25T06:11:46.000Z,21.5
2022-08-25T06:13:00.000Z,21.5
2022-08-25T06:14:14.000Z,21.5
2022-08-25T06:15:28.000Z,21.5
2022-08-25T06:16:42.000Z,21.6
2022-08-25T06:17:56.000Z,21.6
2022-08-25T06:19:10.000Z,21.6
2022-08-25T06:20:24.000Z,21.6
2022-08-25T06:21:38.000Z,21.7
2022-08-25T06:22:52.000Z,21.7
2022-08-25T06:24:06.000Z,21.7
2022-08-25T06:25:20.000Z,21.8
2022-08-25T06:26:34.000Z,21.8
2022-08-25T06:27:48.000Z,21.8
2022-08-25T06:29:02.000Z,21.8
2022-08-25T06:30:15.000Z,21.9
2022-08-25T06:31:29.000Z,21.9
2022-08-25T06:32:43.000Z,21.9
2022-08-25T06:33:57.000Z,21.9
2022-08-25T06:35:11.000Z,22
2022-08-25T06:36:25.000Z,22
2022-08-25T06:37:39.000Z,22
2022-08-25T06:38:53.000Z,22
2022-08-25T06:40:06.000Z,22.1
2022-08-25T06:41:20.000Z,22.1
2022-08-25T06:42:34.000Z,22.1
2022-08-25T06:43:48.000Z,22.1
2022-08-25T06:45:02.000Z,22.2
2022-08-25T06:46:16.000Z,22.2
2022-08-25T06:47:30.000Z,22.2
2022-08-25T06:48:44.000Z,22.3
2022-08-25T06:49:59.000Z,22.3
2022-08-25T06:51:13.000Z,22.3
2022-08-25T06:52:27.000Z,22.3
2022-08-25T06:53:41.000Z,22.4
2022-08-25T06:54:55.000Z,22.4
2022-08-25T06:56:09.000Z,22.4
2022-08-25T06:57:22.000Z,22.4
2022-08-25T06:58:36.000Z,22.5
2022-08-25T06:59:51.000Z,22.5
2022-08-25T07:01:05.000Z,22.5
2022-08-25T07:02:19.000Z,22.5
2022-08-25T07:03:33.000Z,22.6
2022-08-25T07:04:46.000Z,22.6
2022-08-25T07:05:59.000Z,22.6
2022-08-25T07:07:12.000Z,22.7
2022-08-25T07:08:26.000Z,22.7
2022-08-25T07:09:41.000Z,22.8
2022-08-25T07:10:55.000Z,22.8
2022-08-25T07:12:09.000Z,22.8
2022-08-25T07:13:23.000Z,22.9
2022-08-25T07:14:37.000Z,22.9
2022-08-25T07:15:51.000Z,22.9
2022-08-25T07:17:05.000Z,23
2022-08-25T07:18:19.000Z,23
2022-08-25T07:19:34.000Z,23
2022-08-25T07:20:48.000Z,23.1
2022-08-25T07:22:02.000Z,23.1
2022-08-25T07:23:15.000Z,23.1
2022-08-25T07:24:29.000Z,23.2
2022-08-25T07:25:43.000Z,23.2
2022-08-25T07:26:57.000Z,23.2
2022-08-25T07:28:11.000Z,23.3
2022-08-25T07:29:26.000Z,23.3
2022-08-25T07:30:40.000Z,23.3
2022-08-25T07:31:54.000Z,23.4
2022-08-25T07:33:07.000Z,23.4
2022-08-25T07:34:20.000Z,23.4
2022-08-25T07:35:34.000Z,23.5
2022-08-25T07:36:47.000Z,23.5
2022-08-25T07:38:01.000Z,23.5
2022-08-25T07:39:15.000Z,23.6
2022-08-25T07:40:29.000Z,23.6
2022-08-25T07:41:43.000Z,23.7
2022-08-25T07:42:57.000Z,23.7
2022-08-25T07:44:11.000Z,23.8
2022-08-25T07:45:25.000Z,23.8
2022-08-25T07:46:39.000Z,23.8
2022-08-25T07:47:54.000Z,23.8
2022-08-25T07:49:08.000Z,23.9
2022-08-25T07:50:22.000Z,23.9
2022-08-25T07:51:36.000Z,23.9
2022-08-25T07:52:50.000Z,24
2022-08-25T07:54:03.000Z,24
2022-08-25T07:55:17.000Z,24.1
2022-08-25T07:56:31.000Z,24.1
2022-08-25T07:57:46.000Z,24.2
2022-08-25T07:59:00.000Z,24.2
2022-08-25T08:01:28.000Z,24.3
2022-08-25T08:02:42.000Z,24.3
2022-08-25T08:03:55.000Z,24.3
2022-08-25T08:05:08.000Z,24.4
2022-08-25T08:06:22.000Z,24.4
2022-08-25T08:07:36.000Z,24.4
2022-08-25T08:08:50.000Z,24.5
2022-08-25T08:10:04.000Z,24.5
2022-08-25T08:11:17.000Z,24.6
2022-08-25T08:12:31.000Z,24.6
2022-08-25T08:13:45.000Z,24.6
2022-08-25T08:14:59.000Z,24.7
2022-08-25T08:16:14.000Z,24.7
2022-08-25T08:17:28.000Z,24.7
2022-08-25T08:18:42.000Z,24.8
2022-08-25T08:19:56.000Z,24.8
2022-08-25T08:21:10.000Z,24.9
2022-08-25T08:22:24.000Z,24.9
2022-08-25T08:23:38.000Z,24.9
2022-08-25T08:24:52.000Z,25
2022-08-25T08:26:07.000Z,25
2022-08-25T08:27:20.000Z,25
2022-08-25T08:28:34.000Z,25.1
2022-08-25T08:29:48.000Z,25.1
2022-08-25T08:31:02.000Z,25.2
2022-08-25T08:32:16.000Z,25.2
2022-08-25T08:33:30.000Z,25.2
2022-08-25T08:34:44.000Z,25.3
2022-08-25T08:35:59.000Z,25.3
2022-08-25T08:37:13.000Z,25.4
2022-08-25T08:38:27.000Z,25.4
2022-08-25T08:39:41.000Z,25.5
2022-08-25T08:40:55.000Z,25.5
2022-08-25T08:42:08.000Z,25.5
2022-08-25T08:43:21.000Z,25.6
2022-08-25T08:44:34.000Z,25.6
2022-08-25T08:45:49.000Z,25.7
2022-08-25T08:47:02.000Z,25.7
2022-08-25T08:48:16.000Z,25.7
2022-08-25T08:49:30.000Z,25.7
2022-08-25T08:50:44.000Z,25.8
2022-08-25T08:51:58.000Z,25.8
2022-08-25T08:53:12.000Z,25.8
2022-08-25T08:54:26.000Z,25.8
2022-08-25T08:55:41.000Z,25.9
2022-08-25T08:56:55.000Z,25.9
2022-08-25T08:58:09.000Z,26
2022-08-25T08:59:23.000Z,26
2022-08-25T09:00:37.000Z,26
2022-08-25T09:01:51.000Z,26.1
2022-08-25T09:03:04.000Z,26.1
2022-08-25T09:04:19.000Z,26.2
2022-08-25T09:05:33.000Z,26.2
2022-08-25T09:06:47.000Z,26.2
2022-08-25T09:08:01.000Z,26.2
2022-08-25T09:09:15.000Z,26.3
2022-08-25T09:10:28.000Z,26.3
2022-08-25T09:11:41.000Z,26.3
2022-08-25T09:12:55.000Z,26.3
2022-08-25T09:15:23.000Z,26.4
2022-08-25T09:16:36.000Z,26.4
2022-08-25T09:17:49.000Z,26.4
2022-08-25T09:19:03.000Z,26.4
2022-08-25T09:20:17.000Z,26.4
2022-08-25T09:21:31.000Z,26.5
2022-08-25T09:22:45.000Z,26.5
2022-08-25T09:24:00.000Z,26.5
2022-08-25T09:25:14.000Z,26.6
2022-08-25T09:26:28.000Z,26.6
2022-08-25T09:27:42.000Z,26.6
2022-08-25T09:28:56.000Z,26.6
2022-08-25T09:30:10.000Z,26.7
2022-08-25T09:31:24.000Z,26.8
2022-08-25T09:32:38.000Z,26.8
2022-08-25T09:33:52.000Z,26.8
2022-08-25T09:35:06.000Z,26.9
2022-08-25T09:36:20.000Z,26.9
2022-08-25T09:37:34.000Z,27
2022-08-25T09:38:48.000Z,27
2022-08-25T09:40:02.000Z,27
2022-08-25T09:41:16.000Z,27.1
2022-08-25T09:42:31.000Z,27.1
2022-08-25T09:43:44.000Z,27.1
2022-08-25T09:44:58.000Z,27.1
2022-08-25T09:46:11.000Z,27.1
2022-08-25T09:47:25.000Z,27.1
2022-08-25T09:48:39.000Z,27.2
2022-08-25T09:49:52.000Z,27.2
2022-08-25T09:51:05.000Z,27.2
2022-08-25T09:52:20.000Z,27.2
2022-08-25T09:53:34.000Z,27.2
2022-08-25T09:54:48.000Z,27.3
2022-08-25T09:56:02.000Z,27.3
2022-08-25T09:57:16.000Z,27.3
2022-08-25T09:58:30.000Z,27.3
2022-08-25T09:59:44.000Z,27.3
2022-08-25T10:00:58.000Z,27.4
2022-08-25T10:02:13.000Z,27.4
2022-08-25T10:03:27.000Z,27.4
2022-08-25T10:04:41.000Z,27.4
2022-08-25T10:05:55.000Z,27.4
2022-08-25T10:07:09.000Z,27.5
2022-08-25T10:08:22.000Z,27.5
2022-08-25T10:09:36.000Z,27.5
2022-08-25T10:10:50.000Z,27.5
2022-08-25T10:12:05.000Z,27.5
2022-08-25T10:13:19.000Z,27.6
2022-08-25T10:14:33.000Z,27.6
2022-08-25T10:15:46.000Z,27.6
2022-08-25T10:16:59.000Z,27.7
2022-08-25T10:18:12.000Z,27.7
2022-08-25T10:19:25.000Z,27.7
2022-08-25T10:20:40.000Z,27.8
2022-08-25T10:21:54.000Z,27.8
2022-08-25T10:23:08.000Z,27.8
2022-08-25T10:24:22.000Z,27.8
2022-08-25T10:25:36.000Z,27.8
2022-08-25T10:26:50.000Z,27.9
2022-08-25T10:28:04.000Z,27.9
2022-08-25T10:29:18.000Z,27.9
2022-08-25T10:30:33.000Z,27.9
2022-08-25T10:31:47.000Z,28
2022-08-25T10:33:01.000Z,28
2022-08-25T10:34:15.000Z,28
2022-08-25T10:35:28.000Z,28.1
2022-08-25T10:36:42.000Z,28.1
2022-08-25T10:37:56.000Z,28.1
2022-08-25T10:39:10.000Z,28.2
2022-08-25T10:40:25.000Z,28.2
2022-08-25T10:41:39.000Z,28.3
2022-08-25T10:42:53.000Z,28.3
2022-08-25T10:44:06.000Z,28.3
2022-08-25T10:45:19.000Z,28.3
2022-08-25T10:46:33.000Z,28.3
2022-08-25T10:47:46.000Z,28.3
2022-08-25T10:49:00.000Z,28.4
2022-08-25T10:50:14.000Z,28.4
2022-08-25T10:51:28.000Z,28.4
2022-08-25T10:52:42.000Z,28.5
2022-08-25T10:53:56.000Z,28.5
2022-08-25T10:55:10.000Z,28.5
2022-08-25T10:56:24.000Z,28.5
2022-08-25T10:57:38.000Z,28.6
2022-08-25T10:58:53.000Z,28.6
2022-08-25T11:00:07.000Z,28.6
2022-08-25T11:01:21.000Z,28.6
2022-08-25T11:02:35.000Z,28.7
2022-08-25T11:03:49.000Z,28.7
2022-08-25T11:05:02.000Z,28.7
2022-08-25T11:06:16.000Z,28.8
2022-08-25T11:07:30.000Z,28.8
2022-08-25T11:08:45.000Z,28.8
2022-08-25T11:09:59.000Z,28.9
2022-08-25T11:11:13.000Z,28.9
2022-08-25T11:12:26.000Z,28.9
2022-08-25T11:13:40.000Z,29
2022-08-25T11:14:54.000Z,29
2022-08-25T11:16:08.000Z,29
2022-08-25T11:17:22.000Z,29.1
2022-08-25T11:18:37.000Z,29.1
2022-08-25T11:19:51.000Z,29.1
2022-08-25T11:21:05.000Z,29.1
2022-08-25T11:22:18.000Z,29.2
2022-08-25T11:23:31.000Z,29.2
2022-08-25T11:24:44.000Z,29.2
2022-08-25T11:25:57.000Z,29.2
2022-08-25T11:27:12.000Z,29.3
2022-08-25T11:28:26.000Z,29.3
2022-08-25T11:29:40.000Z,29.3
2022-08-25T11:30:54.000Z,29.4
2022-08-25T11:32:08.000Z,29.4
2022-08-25T11:33:22.000Z,29.4
2022-08-25T11:34:36.000Z,29.4
2022-08-25T11:35:50.000Z,29.5
2022-08-25T11:37:05.000Z,29.5
2022-08-25T11:38:19.000Z,29.5
2022-08-25T11:39:33.000Z,29.5
2022-08-25T11:40:47.000Z,29.6
2022-08-25T11:42:00.000Z,29.6
2022-08-25T11:43:14.000Z,29.6
2022-08-25T11:44:28.000Z,29.6
2022-08-25T11:45:42.000Z,29.7
2022-08-25T11:46:57.000Z,29.7
2022-08-25T11:48:11.000Z,29.7
2022-08-25T11:49:25.000Z,29.7
2022-08-25T11:50:39.000Z,29.8
2022-08-25T11:51:52.000Z,29.8
2022-08-25T11:53:05.000Z,29.9
2022-08-25T11:54:18.000Z,29.9
2022-08-25T11:55:32.000Z,29.9
2022-08-25T11:56:46.000Z,30
2022-08-25T11:58:00.000Z,30
2022-08-25T11:59:14.000Z,30
2022-08-25T12:00:28.000Z,30
2022-08-25T12:01:42.000Z,30.1
2022-08-25T12:02:56.000Z,30.1
2022-08-25T12:04:10.000Z,30.1
2022-08-25T12:05:25.000Z,30.1
2022-08-25T12:06:39.000Z,30.1
2022-08-25T12:07:53.000Z,30.1
2022-08-25T12:09:07.000Z,30.2
2022-08-25T12:10:21.000Z,30.2
2022-08-25T12:11:34.000Z,30.2
2022-08-25T12:14:16.000Z,30.1
2022-08-25T12:15:30.000Z,30.2
2022-08-25T12:16:44.000Z,30.2
2022-08-25T12:17:58.000Z,30.3
2022-08-25T12:19:13.000Z,30.3
2022-08-25T12:20:27.000Z,30.4
2022-08-25T12:21:41.000Z,30.4
2022-08-25T12:22:55.000Z,30.5
2022-08-25T12:24:09.000Z,30.5
2022-08-25T12:25:23.000Z,30.5
2022-08-25T12:26:37.000Z,30.6
2022-08-25T12:27:51.000Z,30.6
2022-08-25T12:29:06.000Z,30.6
2022-08-25T12:30:20.000Z,30.6
2022-08-25T12:31:34.000Z,30.6
2022-08-25T12:32:48.000Z,30.6
2022-08-25T12:34:02.000Z,30.6
2022-08-25T12:35:16.000Z,30.7
2022-08-25T12:36:30.000Z,30.7
2022-08-25T12:37:45.000Z,30.7
2022-08-25T12:38:58.000Z,30.8
2022-08-25T12:40:11.000Z,30.8
2022-08-25T12:41:25.000Z,30.8
2022-08-25T12:42:39.000Z,30.8
2022-08-25T12:43:53.000Z,30.8
2022-08-25T12:45:07.000Z,30.8
2022-08-25T12:46:21.000Z,30.8
2022-08-25T12:47:36.000Z,30.9
2022-08-25T12:48:50.000Z,30.9
2022-08-25T12:50:04.000Z,30.9
2022-08-25T12:51:18.000Z,30.9
2022-08-25T12:52:32.000Z,31
2022-08-25T12:53:46.000Z,31
2022-08-25T12:55:00.000Z,31
2022-08-25T12:56:14.000Z,31.1
2022-08-25T12:57:28.000Z,31.1
2022-08-25T12:58:42.000Z,31.1
2022-08-25T12:59:56.000Z,31.1
2022-08-25T13:01:10.000Z,31.1
2022-08-25T13:02:24.000Z,31.1
2022-08-25T13:03:38.000Z,31.1
2022-08-25T13:04:52.000Z,31.1
2022-08-25T13:06:05.000Z,31.2
2022-08-25T13:07:19.000Z,31.2
2022-08-25T13:08:33.000Z,31.2
2022-08-25T13:09:47.000Z,31.2
2022-08-25T13:11:01.000Z,31.3
2022-08-25T13:12:15.000Z,31.3
2022-08-25T13:13:29.000Z,31.3
2022-08-25T13:14:44.000Z,31.4
2022-08-25T13:15:58.000Z,31.4
2022-08-25T13:17:12.000Z,31.5
2022-08-25T13:18:26.000Z,31.5
2022-08-25T13:19:40.000Z,31.5
2022-08-25T13:20:54.000Z,31.5
2022-08-25T13:22:08.000Z,31.5
2022-08-25T13:23:22.000Z,31.6
2022-08-25T13:24:36.000Z,31.6
2022-08-25T13:25:50.000Z,31.6
2022-08-25T13:27:04.000Z,31.6
2022-08-25T13:28:18.000Z,31.7
2022-08-25T13:29:32.000Z,31.7
2022-08-25T13:30:45.000Z,31.7
2022-08-25T13:31:58.000Z,31.7
2022-08-25T13:33:13.000Z,31.8
2022-08-25T13:34:26.000Z,31.8
2022-08-25T13:35:39.000Z,31.8
2022-08-25T13:36:53.000Z,31.8
2022-08-25T13:38:07.000Z,31.8
2022-08-25T13:39:21.000Z,31.9
2022-08-25T13:40:35.000Z,31.9
2022-08-25T13:41:50.000Z,32
2022-08-25T13:43:04.000Z,32
2022-08-25T13:44:18.000Z,32
2022-08-25T13:45:32.000Z,32
2022-08-25T13:46:46.000Z,32.1
2022-08-25T13:48:00.000Z,32.1
2022-08-25T13:49:14.000Z,32.1
2022-08-25T13:50:29.000Z,32.2
2022-08-25T13:51:42.000Z,32.2
2022-08-25T13:52:56.000Z,32.3
2022-08-25T13:54:10.000Z,32.3
2022-08-25T13:55:24.000Z,32.3
2022-08-25T13:56:38.000Z,32.3
2022-08-25T13:57:52.000Z,32.4
2022-08-25T13:59:06.000Z,32.4
2022-08-25T14:00:20.000Z,32.5
2022-08-25T14:01:33.000Z,32.5
2022-08-25T14:02:47.000Z,32.5
2022-08-25T14:04:00.000Z,32.6
2022-08-25T14:05:13.000Z,32.6
2022-08-25T14:06:27.000Z,32.7
2022-08-25T14:07:41.000Z,32.7
2022-08-25T14:08:56.000Z,32.7
2022-08-25T14:10:10.000Z,32.8
2022-08-25T14:11:24.000Z,32.8
2022-08-25T14:12:38.000Z,32.9
2022-08-25T14:13:52.000Z,32.9
2022-08-25T14:15:06.000Z,33
2022-08-25T14:16:20.000Z,33
2022-08-25T14:17:35.000Z,33.1
2022-08-25T14:18:49.000Z,33.2
2022-08-25T14:20:03.000Z,33.2
2022-08-25T14:21:16.000Z,33.2
2022-08-25T14:23:44.000Z,33.2
2022-08-25T14:24:58.000Z,33.2
2022-08-25T14:26:12.000Z,33.3
2022-08-25T14:27:27.000Z,33.3
2022-08-25T14:28:41.000Z,33.2
2022-08-25T14:29:55.000Z,33.3
2022-08-25T14:31:09.000Z,33.4
2022-08-25T14:32:22.000Z,33.4
2022-08-25T14:33:35.000Z,33.5
2022-08-25T14:34:49.000Z,33.6
2022-08-25T14:36:04.000Z,33.6
2022-08-25T14:37:18.000Z,33.7
2022-08-25T14:38:31.000Z,33.7
2022-08-25T14:39:44.000Z,33.8
2022-08-25T14:40:58.000Z,33.9
2022-08-25T14:42:12.000Z,33.9
2022-08-25T14:43:26.000Z,33.9
2022-08-25T14:44:41.000Z,34.1
2022-08-25T14:47:09.000Z,34.4
2022-08-25T14:48:23.000Z,34.5
2022-08-25T14:49:37.000Z,34.6
2022-08-25T14:50:51.000Z,34.7
2022-08-25T14:52:05.000Z,34.8
2022-08-25T14:53:19.000Z,34.8
2022-08-25T14:54:34.000Z,34.9
2022-08-25T14:55:47.000Z,34.9
2022-08-25T14:57:01.000Z,34.9
2022-08-25T14:58:15.000Z,35
2022-08-25T14:59:29.000Z,34.9
2022-08-25T15:00:43.000Z,35.1
2022-08-25T15:01:57.000Z,35.2
2022-08-25T15:03:12.000Z,35.3
2022-08-25T15:04:26.000Z,35.5
2022-08-25T15:05:39.000Z,35.6
2022-08-25T15:06:52.000Z,35.7
2022-08-25T15:08:06.000Z,35.8
2022-08-25T15:09:20.000Z,35.9
2022-08-25T15:10:34.000Z,36
2022-08-25T15:11:48.000Z,36.1
2022-08-25T15:13:03.000Z,36.2
2022-08-25T15:14:17.000Z,36.3
2022-08-25T15:15:31.000Z,36.5
2022-08-25T15:16:45.000Z,36.9
2022-08-25T15:17:59.000Z,37.6
2022-08-25T15:19:13.000Z,38.2
2022-08-25T15:20:27.000Z,38.6
2022-08-25T15:21:42.000Z,38.8
2022-08-25T15:22:55.000Z,38.8
2022-08-25T15:24:09.000Z,38.6
2022-08-25T15:25:23.000Z,38.4
2022-08-25T15:26:37.000Z,38.2
2022-08-25T15:27:51.000Z,38.1
2022-08-25T15:29:05.000Z,37.8
2022-08-25T15:30:19.000Z,37.2
2022-08-25T15:31:33.000Z,36.8
2022-08-25T15:32:46.000Z,36.4
2022-08-25T15:33:59.000Z,36.1
2022-08-25T15:35:12.000Z,35.8
2022-08-25T15:36:26.000Z,35.5
2022-08-25T15:37:40.000Z,35.4
2022-08-25T15:38:54.000Z,35.7
2022-08-25T15:40:09.000Z,35.9
2022-08-25T15:41:23.000Z,36
2022-08-25T15:42:37.000Z,36
2022-08-25T15:43:51.000Z,36
2022-08-25T15:46:19.000Z,36
2022-08-25T15:47:33.000Z,35.9
2022-08-25T15:50:02.000Z,35.8
2022-08-25T15:51:15.000Z,35.8
2022-08-25T15:52:28.000Z,35.8
2022-08-25T15:53:42.000Z,35.8
2022-08-25T15:54:56.000Z,35.9
2022-08-25T15:56:10.000Z,35.9
2022-08-25T15:57:25.000Z,36
2022-08-25T15:58:39.000Z,36.1
2022-08-25T15:59:53.000Z,36.1
2022-08-25T16:01:07.000Z,36.2
2022-08-25T16:02:21.000Z,36.3
2022-08-25T16:03:35.000Z,36.4
2022-08-25T16:04:48.000Z,36.4
2022-08-25T16:06:01.000Z,36.5
2022-08-25T16:07:16.000Z,36.6
2022-08-25T16:08:30.000Z,36.7
2022-08-25T16:09:44.000Z,36.8
2022-08-25T16:10:58.000Z,36.8
2022-08-25T16:12:12.000Z,36.9
2022-08-25T16:13:26.000Z,37
2022-08-25T16:14:40.000Z,37
2022-08-25T16:15:55.000Z,37.1
2022-08-25T16:17:09.000Z,37.2
2022-08-25T16:18:23.000Z,37.2
2022-08-25T16:19:37.000Z,37.2
2022-08-25T16:20:51.000Z,37.3
2022-08-25T16:22:04.000Z,37.3
2022-08-25T16:23:18.000Z,37.3
2022-08-25T16:24:33.000Z,37.4
2022-08-25T16:25:47.000Z,37.4
2022-08-25T16:27:01.000Z,37.5
2022-08-25T16:28:15.000Z,37.5
2022-08-25T16:29:29.000Z,37.6
2022-08-25T16:30:42.000Z,37.7
2022-08-25T16:31:55.000Z,37.8
2022-08-25T16:33:09.000Z,37.9
2022-08-25T16:34:23.000Z,38
2022-08-25T16:35:36.000Z,38.1
2022-08-25T16:36:50.000Z,38.4
2022-08-25T16:38:04.000Z,38.7
2022-08-25T16:39:18.000Z,39
2022-08-25T16:40:32.000Z,39.3
2022-08-25T16:41:46.000Z,39.6